Time;durP1;ratioP1;P1;durP2;ratioP2;P2;SDS_P1;SDS_P2;PMS_P1;PMS_P2;Temp;Humidity;BMP_temperature;BMP_pressure;BME280_temperature;BME280_humidity;BME280_pressure;Samples;Min_cycle;Max_cycle;Signal;HPM_P1;HPM_P2
2020/12/12 00:00:58;;;;;;;62.03;37.72;;;;;;;7.97;72.27;99138.03;4986970;28;98211;-69
2020/12/12 00:03:26;;;;;;;53.88;35.83;;;;;;;7.85;72.41;99135.19;4987431;28;100843;-70
2020/12/12 00:05:52;;;;;;;55.42;36.38;;;;;;;7.87;72.53;99129.91;4987877;28;98470;-70
2020/12/12 00:08:18;;;;;;;53.45;34.65;;;;;;;7.83;72.56;99131.03;4987719;28;97655;-70
2020/12/12 00:10:46;;;;;;;56.90;39.53;;;;;;;7.91;72.13;99121.03;4986275;28;100985;-70
2020/12/12 00:13:14;;;;;;;58.78;35.75;;;;;;;7.90;72.66;99115.94;4985931;28;97348;-69
2020/12/12 00:15:42;;;;;;;55.35;36.65;;;;;;;7.96;72.43;99126.81;4974771;28;98881;-70
2020/12/12 00:18:08;;;;;;;53.15;33.60;;;;;;;7.91;72.32;99122.81;4988310;28;98361;-69
2020/12/12 00:20:35;;;;;;;57.10;37.00;;;;;;;7.88;72.78;99126.41;4988908;28;99802;-69
2020/12/12 00:23:01;;;;;;;49.35;35.53;;;;;;;7.91;72.37;99118.44;4987669;28;96852;-69
2020/12/12 00:25:27;;;;;;;59.05;36.90;;;;;;;7.92;72.40;99106.31;4986789;28;98773;-68
2020/12/12 00:27:54;;;;;;;55.13;35.50;;;;;;;7.76;72.79;99104.59;4987362;28;97527;-69
2020/12/12 00:30:20;;;;;;;53.42;35.15;;;;;;;7.63;73.27;99092.41;4987161;28;96737;-69
2020/12/12 00:32:46;;;;;;;55.58;35.28;;;;;;;7.82;72.19;99093.03;4987006;28;97421;-69
2020/12/12 00:35:13;;;;;;;53.70;35.53;;;;;;;7.77;72.38;99095.03;4986428;28;98626;-69
2020/12/12 00:37:40;;;;;;;52.95;35.88;;;;;;;7.85;72.44;99098.88;4986836;28;98642;-69
2020/12/12 00:40:06;;;;;;;55.38;34.05;;;;;;;7.97;71.55;99099.09;4986634;28;99702;-69
2020/12/12 00:42:32;;;;;;;56.17;36.50;;;;;;;7.82;72.90;99099.03;4986997;28;96667;-69
2020/12/12 00:44:59;;;;;;;61.65;37.72;;;;;;;7.87;72.29;99091.84;4990583;28;99403;-69
2020/12/12 00:47:25;;;;;;;58.55;36.60;;;;;;;8.02;71.26;99089.28;4984950;28;98520;-70
2020/12/12 00:49:52;;;;;;;52.15;32.03;;;;;;;8.05;70.90;99094.31;4986823;28;97428;-69
2020/12/12 00:52:19;;;;;;;55.53;33.95;;;;;;;7.89;71.75;99091.75;4986554;28;97883;-69
2020/12/12 00:54:45;;;;;;;54.70;35.53;;;;;;;7.95;71.40;99093.16;4986427;28;99079;-69
2020/12/12 00:57:12;;;;;;;57.17;36.65;;;;;;;7.93;71.46;99090.66;4987225;28;99272;-69
2020/12/12 00:59:38;;;;;;;60.50;38.50;;;;;;;8.03;71.13;99086.59;4986424;28;96769;-69
2020/12/12 01:02:05;;;;;;;76.82;39.60;;;;;;;7.92;71.74;99088.16;4986541;28;97647;-69
2020/12/12 01:04:31;;;;;;;63.67;38.45;;;;;;;7.90;72.33;99084.81;4986509;28;98533;-69
2020/12/12 01:06:58;;;;;;;65.28;37.13;;;;;;;7.90;72.08;99083.06;4988037;28;98582;-69
2020/12/12 01:09:24;;;;;;;65.70;39.90;;;;;;;7.82;72.34;99078.28;4990468;28;97766;-69
2020/12/12 01:11:51;;;;;;;74.38;40.45;;;;;;;7.93;71.70;99079.44;4986099;28;99997;-70
2020/12/12 01:14:18;;;;;;;65.63;39.55;;;;;;;7.84;71.97;99070.44;4984184;28;98691;-70
2020/12/12 01:16:44;;;;;;;60.85;36.67;;;;;;;7.85;72.49;99075.53;4985122;28;99989;-70
2020/12/12 01:19:11;;;;;;;73.32;39.40;;;;;;;7.86;71.86;99084.97;4986281;28;96727;-68
2020/12/12 01:21:37;;;;;;;60.50;36.65;;;;;;;7.94;71.75;99081.97;4986605;28;96709;-69
2020/12/12 01:24:05;;;;;;;65.78;38.05;;;;;;;7.96;71.37;99087.06;4985871;28;98304;-69
2020/12/12 01:26:32;;;;;;;56.50;35.47;;;;;;;7.96;71.64;99094.84;4986872;28;98812;-68
2020/12/12 01:28:59;;;;;;;63.30;37.92;;;;;;;7.96;71.57;99094.84;4988012;28;97118;-69
2020/12/12 01:31:26;;;;;;;65.93;40.60;;;;;;;7.94;71.58;99087.16;4988727;28;96858;-69
2020/12/12 01:33:52;;;;;;;68.82;38.65;;;;;;;7.96;72.11;99085.28;4985375;28;97358;-70
2020/12/12 01:36:19;;;;;;;63.78;41.53;;;;;;;7.94;72.26;99076.78;4986423;28;98888;-69
2020/12/12 01:38:45;;;;;;;72.07;41.97;;;;;;;8.00;71.49;99072.97;4988647;28;97420;-70
2020/12/12 01:41:12;;;;;;;67.80;40.97;;;;;;;8.01;71.54;99075.47;4990492;28;97071;-69
2020/12/12 01:43:39;;;;;;;66.32;40.53;;;;;;;8.01;71.53;99066.84;4989601;28;98567;-68
2020/12/12 01:46:05;;;;;;;68.22;40.30;;;;;;;8.01;71.14;99064.28;4988711;28;97624;-69
2020/12/12 01:48:32;;;;;;;66.63;37.63;;;;;;;7.91;71.58;99056.16;4953410;28;96768;-70
2020/12/12 01:50:58;;;;;;;66.22;38.78;;;;;;;7.94;71.25;99056.00;4975060;28;97190;-70
2020/12/12 01:53:26;;;;;;;68.35;42.78;;;;;;;7.93;71.95;99049.13;4988254;28;98834;-69
2020/12/12 01:55:52;;;;;;;72.82;37.67;;;;;;;7.93;71.69;99048.28;4974420;28;98364;-69
2020/12/12 01:58:19;;;;;;;63.35;38.15;;;;;;;7.95;71.96;99036.91;4990030;28;97409;-69
2020/12/12 02:00:45;;;;;;;67.18;39.97;;;;;;;7.76;72.43;99037.13;4989466;28;99936;-69
2020/12/12 02:03:13;;;;;;;68.80;41.90;;;;;;;7.76;72.81;99036.31;4988462;28;99397;-69
2020/12/12 02:05:39;;;;;;;66.60;40.50;;;;;;;7.79;72.69;99031.78;4989556;28;98415;-69
2020/12/12 02:08:13;;;;;;;64.03;37.30;;;;;;;7.64;72.89;99022.28;4988664;28;97577;-69
2020/12/12 02:10:44;;;;;;;71.72;41.97;;;;;;;7.92;71.78;99025.88;4989550;28;96705;-69
2020/12/12 02:13:12;;;;;;;70.50;40.78;;;;;;;7.85;72.29;99021.03;4988651;28;98562;-69
2020/12/12 02:15:38;;;;;;;63.65;39.53;;;;;;;7.89;72.00;99016.53;4988218;28;98650;-70
2020/12/12 02:18:05;;;;;;;66.85;40.38;;;;;;;7.67;72.11;99016.94;4988827;28;96761;-68
2020/12/12 02:20:32;;;;;;;59.83;37.90;;;;;;;7.67;72.57;99022.13;4989286;28;96818;-68
2020/12/12 02:22:58;;;;;;;71.65;43.25;;;;;;;7.61;73.11;99022.44;4987735;28;100393;-69
2020/12/12 02:25:25;;;;;;;60.78;36.33;;;;;;;7.77;72.34;99033.59;4989117;28;98609;-69
2020/12/12 02:27:54;;;;;;;58.47;37.00;;;;;;;7.81;72.57;99024.72;4989081;28;99218;-69
2020/12/12 02:30:21;;;;;;;64.45;37.72;;;;;;;7.91;71.84;99022.44;4989606;28;97361;-69
2020/12/12 02:32:47;;;;;;;63.70;37.90;;;;;;;7.80;72.32;99017.88;4989981;28;98598;-70
2020/12/12 02:35:14;;;;;;;61.00;37.80;;;;;;;7.78;72.49;99014.56;4987750;28;99704;-70
2020/12/12 02:37:40;;;;;;;69.82;39.90;;;;;;;7.64;72.73;99006.72;4988819;28;96646;-68
2020/12/12 02:40:06;;;;;;;63.42;39.42;;;;;;;7.62;72.76;99006.00;4987887;28;99286;-67
2020/12/12 02:42:33;;;;;;;66.88;41.95;;;;;;;7.63;72.67;99005.06;4992323;28;97495;-66
2020/12/12 02:44:59;;;;;;;61.67;37.85;;;;;;;7.73;72.71;99006.19;4988660;28;98555;-67
2020/12/12 02:47:25;;;;;;;61.53;38.83;;;;;;;7.83;72.23;99009.94;4989297;28;96723;-67
2020/12/12 02:50:10;;;;;;;71.40;39.05;;;;;;;7.91;72.32;99019.00;4988238;28;99004;-69
2020/12/12 02:52:42;;;;;;;66.32;38.67;;;;;;;7.93;71.84;99009.38;4987774;28;99267;-69
2020/12/12 02:55:10;;;;;;;60.53;37.22;;;;;;;7.71;72.46;99008.03;4978504;28;98527;-68
2020/12/12 02:57:36;;;;;;;58.90;36.22;;;;;;;7.76;72.20;99015.53;4988228;28;97462;-68
2020/12/12 03:00:07;;;;;;;60.33;36.70;;;;;;;7.60;72.03;99005.22;4988304;28;97664;-68
2020/12/12 03:02:33;;;;;;;65.20;41.05;;;;;;;7.30;73.81;99000.03;4988121;28;98639;-69
2020/12/12 03:05:00;;;;;;;56.58;36.40;;;;;;;7.47;72.95;99001.69;4987536;28;98542;-69
2020/12/12 03:07:26;;;;;;;66.55;39.22;;;;;;;7.48;72.39;98996.41;4986082;28;96609;-69
2020/12/12 03:09:53;;;;;;;66.35;39.03;;;;;;;7.48;72.76;99000.75;4986769;28;96628;-69
2020/12/12 03:12:19;;;;;;;61.10;38.92;;;;;;;7.57;73.41;99002.81;4982037;28;98420;-69
2020/12/12 03:14:45;;;;;;;58.40;35.97;;;;;;;7.71;72.75;99000.25;4983564;28;98560;-69
2020/12/12 03:17:12;;;;;;;63.72;36.78;;;;;;;7.77;72.37;99009.44;4985853;28;96687;-67
2020/12/12 03:19:39;;;;;;;59.53;39.15;;;;;;;7.68;73.02;98999.59;4985963;28;96578;-67
2020/12/12 03:22:05;;;;;;;54.80;36.42;;;;;;;7.68;72.80;98997.84;4980566;28;98464;-69
2020/12/12 03:24:32;;;;;;;58.20;37.20;;;;;;;7.73;72.53;98995.00;4982996;28;98590;-66
2020/12/12 03:26:59;;;;;;;59.38;35.35;;;;;;;7.72;72.32;98994.13;4981566;28;96736;-66
2020/12/12 03:29:25;;;;;;;65.00;37.90;;;;;;;7.65;72.30;98997.19;4982849;28;96525;-69
2020/12/12 03:31:51;;;;;;;60.80;38.38;;;;;;;7.76;71.92;98989.59;4980103;28;98510;-67
2020/12/12 03:34:18;;;;;;;58.47;38.08;;;;;;;7.79;72.11;98999.81;4982332;28;98483;-66
2020/12/12 03:36:45;;;;;;;56.30;33.65;;;;;;;7.82;71.95;99002.22;4989579;28;96699;-68
2020/12/12 03:39:11;;;;;;;61.60;38.38;;;;;;;7.79;72.34;98995.47;4983267;28;97352;-66
2020/12/12 03:41:38;;;;;;;61.20;40.88;;;;;;;7.78;72.05;98987.78;4978829;28;98639;-68
2020/12/12 03:44:04;;;;;;;59.72;35.78;;;;;;;7.76;72.69;98977.47;4982692;28;98776;-68
2020/12/12 03:46:31;;;;;;;57.08;36.65;;;;;;;7.91;71.87;98972.31;4980024;28;96656;-69
2020/12/12 03:48:57;;;;;;;62.20;36.30;;;;;;;8.07;71.29;98978.25;4992792;28;96751;-69
2020/12/12 03:51:24;;;;;;;60.63;35.65;;;;;;;8.06;71.14;98974.81;4976514;28;98608;-69
2020/12/12 03:53:50;;;;;;;61.38;35.95;;;;;;;7.97;71.57;98969.34;4990552;28;98613;-69
2020/12/12 03:56:16;;;;;;;57.90;34.00;;;;;;;7.84;72.07;98972.69;4983564;28;96996;-69
2020/12/12 03:58:43;;;;;;;57.13;39.25;;;;;;;7.82;72.43;98979.69;4978860;28;96748;-69
2020/12/12 04:01:09;;;;;;;61.13;37.13;;;;;;;7.81;72.47;98967.66;4975471;28;98631;-69
2020/12/12 04:03:35;;;;;;;70.13;40.63;;;;;;;7.87;72.23;98971.66;4987487;28;98723;-70
2020/12/12 04:06:02;;;;;;;55.38;35.88;;;;;;;7.80;72.22;98970.34;4980276;28;97248;-68
2020/12/12 04:08:28;;;;;;;52.38;34.13;;;;;;;7.81;72.80;98966.81;4981722;28;97143;-70
2020/12/12 04:10:54;;;;;;;55.85;36.05;;;;;;;7.84;72.20;98966.66;4990659;28;96707;-70
2020/12/12 04:13:21;;;;;;;52.65;36.30;;;;;;;7.98;71.43;98963.22;4978950;28;98652;-70
2020/12/12 04:15:47;;;;;;;58.10;38.00;;;;;;;7.88;72.26;98968.13;4979682;28;96545;-70
2020/12/12 04:18:14;;;;;;;58.78;38.40;;;;;;;7.89;72.06;98969.81;4985112;28;97104;-70
2020/12/12 04:20:40;;;;;;;55.83;36.00;;;;;;;7.96;71.87;98959.91;4983287;28;98593;-70
2020/12/12 04:23:07;;;;;;;58.47;36.83;;;;;;;7.90;71.96;98970.66;4982727;28;98499;-70
2020/12/12 04:25:34;;;;;;;58.53;35.70;;;;;;;7.97;71.26;98966.75;4975276;28;96555;-69
2020/12/12 04:28:00;;;;;;;59.63;37.70;;;;;;;8.02;71.35;98957.75;4985167;28;96618;-70
2020/12/12 04:30:26;;;;;;;61.55;35.55;;;;;;;7.98;71.52;98964.06;4986005;28;98310;-70
2020/12/12 04:32:53;;;;;;;60.20;38.55;;;;;;;7.93;71.84;98962.66;4991012;28;98492;-70
2020/12/12 04:35:19;;;;;;;54.67;34.97;;;;;;;7.81;71.99;98965.06;4979847;28;96571;-70
2020/12/12 04:37:46;;;;;;;57.97;37.38;;;;;;;7.92;71.68;98967.03;4987129;28;96815;-70
2020/12/12 04:40:12;;;;;;;59.67;37.28;;;;;;;7.83;71.95;98960.63;4964876;28;98582;-70
2020/12/12 04:42:42;;;;;;;64.72;40.53;;;;;;;7.98;71.88;98964.06;4975334;28;98449;-70
2020/12/12 04:45:11;;;;;;;60.35;38.40;;;;;;;7.92;71.31;98967.03;4980163;28;96856;-70
2020/12/12 04:47:41;;;;;;;59.47;37.92;;;;;;;7.82;71.67;98966.72;4981743;28;97485;-70
2020/12/12 04:50:07;;;;;;;60.95;34.67;;;;;;;7.90;71.95;98965.47;4955199;28;98645;-70
2020/12/12 04:52:33;;;;;;;65.10;38.15;;;;;;;7.90;71.48;98970.66;4986619;28;99858;-70
2020/12/12 04:55:05;;;;;;;54.88;34.78;;;;;;;7.94;71.78;98972.97;4972077;28;96967;-70
2020/12/12 04:57:38;;;;;;;55.33;35.05;;;;;;;7.92;71.40;98968.78;4985162;28;99819;-69
2020/12/12 05:00:09;;;;;;;61.40;37.05;;;;;;;7.86;71.47;98968.22;4970214;28;98579;-69
2020/12/12 05:02:36;;;;;;;53.15;35.17;;;;;;;7.98;70.95;98968.41;4986074;28;98543;-69
2020/12/12 05:05:06;;;;;;;55.15;38.50;;;;;;;7.92;71.09;98969.63;4986959;28;97327;-69
2020/12/12 05:07:33;;;;;;;58.03;37.83;;;;;;;7.94;71.29;98979.94;4985289;28;97114;-69
2020/12/12 05:10:08;;;;;;;59.17;35.25;;;;;;;7.95;70.86;98973.81;4985631;28;97579;-69
2020/12/12 05:12:35;;;;;;;55.05;35.55;;;;;;;7.77;71.65;98975.72;4973506;28;98698;-69
2020/12/12 05:15:01;;;;;;;61.00;38.25;;;;;;;7.99;70.84;98981.31;4987091;28;96725;-69
2020/12/12 05:17:28;;;;;;;51.60;35.47;;;;;;;8.00;70.69;98974.38;4986569;28;97477;-70
2020/12/12 05:19:54;;;;;;;47.08;33.35;;;;;;;7.81;71.38;98967.66;4986117;28;98652;-69
2020/12/12 05:22:21;;;;;;;55.67;35.20;;;;;;;7.99;70.96;98972.69;4959520;28;99638;-69
2020/12/12 05:24:47;;;;;;;47.30;33.17;;;;;;;7.99;70.70;98975.25;4973947;28;97262;-70
2020/12/12 05:27:13;;;;;;;51.97;34.60;;;;;;;7.98;70.50;98973.59;4988651;28;96779;-70
2020/12/12 05:29:40;;;;;;;54.10;36.25;;;;;;;7.90;70.97;98981.03;4986055;28;98594;-69
2020/12/12 05:32:06;;;;;;;48.35;33.90;;;;;;;7.99;70.66;98980.47;4986618;28;100125;-70
2020/12/12 05:34:33;;;;;;;49.53;32.63;;;;;;;7.95;70.88;98982.41;4984266;28;97727;-70
2020/12/12 05:36:59;;;;;;;47.72;32.88;;;;;;;7.88;70.71;98978.50;4986967;28;98453;-69
2020/12/12 05:39:26;;;;;;;50.28;34.00;;;;;;;7.93;70.74;98981.66;4985701;28;98563;-69
2020/12/12 05:41:52;;;;;;;52.15;35.75;;;;;;;7.94;70.36;98974.75;4983354;28;98241;-70
2020/12/12 05:44:19;;;;;;;46.55;31.42;;;;;;;7.95;70.55;98979.81;4986511;28;96724;-68
2020/12/12 05:46:46;;;;;;;45.38;33.47;;;;;;;7.89;70.73;98980.19;4987014;28;98520;-68
2020/12/12 05:49:13;;;;;;;43.30;32.58;;;;;;;7.91;70.38;98980.09;4985982;28;98488;-70
2020/12/12 05:51:39;;;;;;;43.83;31.60;;;;;;;7.99;70.11;98975.25;4985552;28;98433;-69
2020/12/12 05:54:06;;;;;;;45.25;33.00;;;;;;;7.73;71.11;98971.66;4984601;28;97419;-69
2020/12/12 05:56:33;;;;;;;42.65;32.90;;;;;;;7.88;71.08;98981.09;4974911;28;98134;-68
2020/12/12 05:58:59;;;;;;;39.38;29.70;;;;;;;7.92;70.63;98976.56;4985601;28;99031;-69
2020/12/12 06:01:30;;;;;;;43.30;33.42;;;;;;;7.87;70.76;98972.47;4987313;28;98542;-70
2020/12/12 06:04:09;;;;;;;40.97;29.48;;;;;;;7.80;70.07;98971.19;4973629;28;97085;-70
2020/12/12 06:06:43;;;;;;;37.65;28.75;;;;;;;7.87;69.59;98972.47;4987134;28;96820;-69
2020/12/12 06:09:10;;;;;;;38.25;30.05;;;;;;;7.76;70.29;98977.47;4990286;28;98656;-67
2020/12/12 06:11:38;;;;;;;42.03;28.00;;;;;;;7.77;70.18;98978.31;4990228;28;98470;-70
2020/12/12 06:14:05;;;;;;;36.78;29.75;;;;;;;7.82;69.89;98973.69;4963881;28;96715;-69
2020/12/12 06:16:33;;;;;;;36.28;26.85;;;;;;;7.83;69.77;98984.00;4991104;28;97440;-70
2020/12/12 06:19:00;;;;;;;33.00;27.02;;;;;;;7.82;69.90;98977.09;4987949;28;97723;-69
2020/12/12 06:21:26;;;;;;;39.75;30.52;;;;;;;7.76;70.41;98980.06;4989391;28;98458;-65
2020/12/12 06:23:52;;;;;;;39.85;29.27;;;;;;;7.73;70.98;98990.63;4973280;28;98206;-70
2020/12/12 06:26:22;;;;;;;36.22;28.65;;;;;;;7.69;70.88;98983.94;4955975;28;98074;-67
2020/12/12 06:28:49;;;;;;;35.42;27.15;;;;;;;7.73;70.67;98985.44;4955886;28;98502;-69
2020/12/12 06:31:15;;;;;;;36.90;28.45;;;;;;;7.78;70.95;98991.19;4973696;28;98581;-67
2020/12/12 06:33:51;;;;;;;33.28;28.42;;;;;;;7.75;70.55;98990.53;4992177;28;97902;-69
2020/12/12 06:36:31;;;;;;;33.00;27.95;;;;;;;7.74;71.00;98981.91;4991472;28;96574;-69
2020/12/12 06:39:30;;;;;;;34.45;27.02;;;;;;;7.75;70.27;98988.78;4990816;28;98414;-69
2020/12/12 06:41:57;;;;;;;38.08;28.73;;;;;;;7.67;71.21;98985.81;4960467;28;97792;-69
2020/12/12 06:44:34;;;;;;;34.67;26.55;;;;;;;7.74;70.72;98989.69;4974787;28;97213;-68
2020/12/12 06:47:00;;;;;;;37.15;28.67;;;;;;;7.57;71.37;98985.50;4993086;28;96999;-70
2020/12/12 06:49:27;;;;;;;37.22;29.58;;;;;;;7.55;71.87;98997.69;4993685;28;98485;-68
2020/12/12 06:51:53;;;;;;;37.63;29.45;;;;;;;7.58;71.60;98991.53;4987712;28;99588;-68
2020/12/12 06:54:20;;;;;;;37.92;28.80;;;;;;;7.67;71.46;98998.78;4990172;28;97289;-68
2020/12/12 06:56:47;;;;;;;38.63;29.70;;;;;;;7.63;71.75;98994.69;4987288;28;97661;-69
2020/12/12 06:59:42;;;;;;;35.70;29.67;;;;;;;7.59;71.99;98993.19;4994781;28;98910;-70
2020/12/12 07:02:09;;;;;;;37.10;29.88;;;;;;;7.54;72.31;99001.22;4956309;28;99804;-69
2020/12/12 07:04:37;;;;;;;39.00;30.55;;;;;;;7.49;72.77;98995.47;4993666;28;98505;-59
2020/12/12 07:07:07;;;;;;;34.65;29.08;;;;;;;7.65;72.04;99000.59;4996316;28;97440;-60
2020/12/12 07:09:34;;;;;;;40.75;28.08;;;;;;;7.69;71.34;99003.88;4992312;28;99913;-73
2020/12/12 07:12:01;;;;;;;33.10;26.02;;;;;;;7.65;71.14;99010.97;4994927;28;98689;-74
2020/12/12 07:14:27;;;;;;;38.92;29.50;;;;;;;7.64;71.31;99005.88;4991764;28;96921;-76
2020/12/12 07:16:55;;;;;;;36.78;27.35;;;;;;;7.67;71.62;99006.56;4992893;28;96973;-72
2020/12/12 07:19:48;;;;;;;37.83;29.08;;;;;;;7.65;71.70;99008.38;4989508;28;98387;-75
2020/12/12 07:22:14;;;;;;;37.90;30.83;;;;;;;7.53;72.18;99003.91;4964741;28;98617;-72
2020/12/12 07:24:41;;;;;;;33.15;27.50;;;;;;;7.71;71.63;99014.97;4981599;28;97032;-74
2020/12/12 07:27:08;;;;;;;32.15;25.85;;;;;;;7.71;71.75;99014.97;4986832;28;97196;-74
2020/12/12 07:29:34;;;;;;;37.22;27.67;;;;;;;7.58;72.25;99014.84;4986470;28;98487;-73
2020/12/12 07:32:01;;;;;;;33.70;27.38;;;;;;;7.58;72.85;99018.28;4985068;28;98504;-72
2020/12/12 07:34:27;;;;;;;35.47;29.02;;;;;;;7.58;72.54;99020.03;4982031;28;96638;-71
2020/12/12 07:37:02;;;;;;;39.78;29.85;;;;;;;7.55;72.56;99015.03;4986490;28;96917;-74
2020/12/12 07:39:36;;;;;;;38.08;29.05;;;;;;;7.68;72.89;99018.59;4984980;28;97308;-72
2020/12/12 07:42:03;;;;;;;37.47;29.15;;;;;;;7.69;72.36;99014.25;4983405;28;98632;-71
2020/12/12 07:44:34;;;;;;;35.00;26.67;;;;;;;7.74;72.18;99020.84;4967762;28;97025;-70
2020/12/12 07:47:05;;;;;;;32.28;27.98;;;;;;;7.80;71.91;99028.25;4980827;28;97207;-73
2020/12/12 07:49:32;;;;;;;36.15;28.33;;;;;;;7.74;72.47;99028.63;4982038;28;98446;-73
2020/12/12 07:52:03;;;;;;;37.70;31.27;;;;;;;7.68;71.95;99025.53;4965335;28;98049;-70
2020/12/12 07:54:38;;;;;;;38.17;29.15;;;;;;;7.72;71.75;99030.44;4975648;28;98507;-72
2020/12/12 07:57:08;;;;;;;37.35;29.48;;;;;;;7.78;71.28;99031.88;4970824;28;96683;-72
2020/12/12 07:59:34;;;;;;;35.08;26.95;;;;;;;7.76;71.14;99026.75;4980311;28;98468;-70
2020/12/12 08:02:03;;;;;;;40.58;29.60;;;;;;;7.75;72.10;99029.44;4983189;28;97638;-70
2020/12/12 08:04:29;;;;;;;37.50;29.23;;;;;;;7.84;71.54;99041.91;4985776;28;96662;-73
2020/12/12 08:06:56;;;;;;;36.20;26.55;;;;;;;7.81;71.71;99035.09;4972557;28;96766;-72
2020/12/12 08:09:23;;;;;;;38.33;30.35;;;;;;;7.81;71.59;99034.28;4978210;28;98433;-72
2020/12/12 08:11:58;;;;;;;42.75;30.42;;;;;;;7.69;71.95;99043.59;4971468;28;97416;-71
2020/12/12 08:14:26;;;;;;;37.63;28.58;;;;;;;7.83;71.74;99035.88;4971923;28;97601;-74
2020/12/12 08:16:57;;;;;;;39.05;28.98;;;;;;;7.70;71.50;99037.50;4972402;28;96835;-73
2020/12/12 08:19:24;;;;;;;39.58;30.65;;;;;;;7.79;71.79;99046.50;4975460;28;98711;-72
2020/12/12 08:22:10;;;;;;;35.90;30.02;;;;;;;7.68;73.08;99049.72;4980247;28;98592;-72
2020/12/12 08:24:36;;;;;;;41.60;31.63;;;;;;;7.82;72.36;99048.91;4961726;28;96754;-72
2020/12/12 08:27:10;;;;;;;36.20;30.13;;;;;;;7.79;71.80;99051.69;4977794;28;96766;-70
2020/12/12 08:29:57;;;;;;;39.83;29.98;;;;;;;7.85;71.66;99052.19;4985894;28;98638;-71
2020/12/12 08:32:43;;;;;;;37.80;30.00;;;;;;;7.71;72.46;99049.53;4981486;28;98633;-70
2020/12/12 08:35:14;;;;;;;35.85;29.55;;;;;;;7.60;73.51;99046.72;4976856;28;97067;-70
2020/12/12 08:37:49;;;;;;;43.13;31.60;;;;;;;7.67;73.34;99047.19;4976208;28;96956;-70
2020/12/12 08:40:15;;;;;;;37.75;29.55;;;;;;;7.74;72.87;99051.13;4967910;28;98451;-71
2020/12/12 08:42:55;;;;;;;34.28;28.20;;;;;;;7.72;73.24;99055.56;4982736;28;98688;-71
2020/12/12 08:45:22;;;;;;;35.80;28.70;;;;;;;7.81;72.37;99061.06;4972472;28;96992;-71
2020/12/12 08:47:58;;;;;;;35.53;26.83;;;;;;;7.71;72.62;99059.06;4978072;28;97002;-72
2020/12/12 08:50:25;;;;;;;33.50;26.95;;;;;;;7.79;72.09;99062.91;4976403;28;98609;-72
2020/12/12 08:52:51;;;;;;;36.78;30.90;;;;;;;7.78;72.11;99066.44;4974448;28;98413;-71
2020/12/12 08:55:18;;;;;;;38.60;27.63;;;;;;;7.93;71.65;99069.06;4981375;28;96982;-72
2020/12/12 08:58:01;;;;;;;36.38;27.20;;;;;;;7.98;71.20;99072.22;4976255;28;96685;-74
2020/12/12 09:00:27;;;;;;;37.53;27.55;;;;;;;7.95;72.12;99077.59;4973468;28;98477;-63
2020/12/12 09:03:00;;;;;;;39.38;29.45;;;;;;;7.87;71.98;99075.44;4979401;28;98591;-63
2020/12/12 09:05:34;;;;;;;37.78;28.50;;;;;;;7.79;72.64;99072.47;4973017;28;97260;-63
2020/12/12 09:08:16;;;;;;;37.60;28.95;;;;;;;7.86;72.46;99084.97;4981281;28;96670;-60
2020/12/12 09:10:43;;;;;;;44.28;29.48;;;;;;;7.82;72.50;99083.47;4983506;28;99780;-64
2020/12/12 09:13:10;;;;;;;39.05;27.83;;;;;;;7.77;72.82;99079.47;4976974;28;98501;-61
2020/12/12 09:15:36;;;;;;;34.40;27.48;;;;;;;7.81;72.77;99078.38;4965302;28;97413;-61
2020/12/12 09:18:04;;;;;;;47.30;30.45;;;;;;;7.86;72.73;99084.97;4975938;28;96727;-62
2020/12/12 09:20:30;;;;;;;36.25;28.58;;;;;;;7.80;73.04;99080.16;4983165;28;97494;-63
2020/12/12 09:22:57;;;;;;;32.72;26.98;;;;;;;7.77;72.66;99090.69;4982139;28;98451;-63
2020/12/12 09:25:23;;;;;;;39.20;26.73;;;;;;;7.94;72.44;99087.16;4983495;28;98160;-63
2020/12/12 09:27:49;;;;;;;33.88;27.55;;;;;;;7.80;72.76;99082.75;4977517;28;96818;-61
2020/12/12 09:30:15;;;;;;;34.10;24.45;;;;;;;7.85;72.34;99083.31;4979251;28;98440;-62
2020/12/12 09:32:42;;;;;;;31.17;25.42;;;;;;;8.02;72.01;99089.28;4959325;28;98458;-65
2020/12/12 09:35:09;;;;;;;32.58;24.67;;;;;;;8.09;71.70;99085.41;4959245;28;97066;-64
2020/12/12 09:37:35;;;;;;;32.33;24.38;;;;;;;8.07;72.10;99079.47;4984506;28;96653;-63
2020/12/12 09:40:01;;;;;;;32.75;26.40;;;;;;;8.11;71.43;99080.97;4984736;28;98389;-64
2020/12/12 09:42:28;;;;;;;33.28;26.98;;;;;;;8.18;71.52;99084.03;4955519;28;98573;-63
2020/12/12 09:44:54;;;;;;;31.48;26.25;;;;;;;8.09;71.29;99085.41;4984693;28;96621;-64
2020/12/12 09:47:20;;;;;;;31.30;26.13;;;;;;;7.88;72.63;99082.28;4971495;28;97405;-63
2020/12/12 09:49:46;;;;;;;30.48;24.13;;;;;;;7.96;72.22;99076.66;4977207;28;98373;-63
2020/12/12 09:52:13;;;;;;;30.73;24.75;;;;;;;8.04;71.31;99079.63;4976254;28;98713;-64
2020/12/12 09:54:39;;;;;;;30.92;23.98;;;;;;;8.04;71.55;99082.25;4974781;28;96601;-63
2020/12/12 09:57:06;;;;;;;26.98;22.30;;;;;;;8.07;71.49;99076.88;4978551;28;97005;-63
2020/12/12 09:59:32;;;;;;;28.13;23.48;;;;;;;8.09;71.38;99075.03;4979465;28;98569;-63
2020/12/12 10:01:58;;;;;;;27.85;22.45;;;;;;;8.09;71.44;99075.03;4980159;28;98514;-61
2020/12/12 10:04:25;;;;;;;26.52;20.83;;;;;;;8.04;71.72;99079.63;4978140;28;96633;-65
2020/12/12 10:06:51;;;;;;;27.02;21.17;;;;;;;8.03;72.42;99077.97;4979738;28;96633;-67
2020/12/12 10:09:17;;;;;;;29.10;23.05;;;;;;;7.96;72.12;99074.91;4980993;28;98661;-66
2020/12/12 10:11:48;;;;;;;33.15;24.27;;;;;;;8.01;72.49;99077.25;4960752;28;98661;-64
2020/12/12 10:14:15;;;;;;;26.20;21.48;;;;;;;8.06;71.58;99076.06;4961952;28;96969;-66
2020/12/12 10:16:41;;;;;;;25.65;21.40;;;;;;;7.93;71.99;99074.25;4979793;28;97594;-65
2020/12/12 10:19:08;;;;;;;26.83;20.67;;;;;;;8.02;71.87;99071.94;4979164;28;98463;-63
2020/12/12 10:21:34;;;;;;;29.88;22.30;;;;;;;8.03;71.49;99070.19;4981390;28;98446;-64
2020/12/12 10:24:01;;;;;;;22.75;18.92;;;;;;;7.92;72.02;99068.22;4981294;28;97906;-63
2020/12/12 10:26:27;;;;;;;25.23;21.10;;;;;;;8.03;72.13;99076.22;4985290;28;97036;-64
2020/12/12 10:28:54;;;;;;;25.73;22.30;;;;;;;8.04;71.73;99072.72;4986501;28;98828;-60
2020/12/12 10:31:20;;;;;;;25.05;20.17;;;;;;;8.07;71.06;99066.50;4987348;28;98731;-63
2020/12/12 10:33:46;;;;;;;24.58;19.83;;;;;;;8.12;71.76;99074.84;4986255;28;96807;-64
2020/12/12 10:36:23;;;;;;;25.55;19.08;;;;;;;8.08;71.47;99068.16;4984991;28;97118;-66
2020/12/12 10:38:50;;;;;;;29.58;22.02;;;;;;;8.08;71.02;99075.94;4977128;28;98522;-65
2020/12/12 10:41:17;;;;;;;27.98;21.63;;;;;;;7.98;71.62;99074.81;4989979;28;98543;-64
2020/12/12 10:43:44;;;;;;;29.65;22.58;;;;;;;8.06;71.18;99073.44;4985831;28;97254;-65
2020/12/12 10:46:10;;;;;;;26.20;22.80;;;;;;;8.08;70.89;99076.78;4982253;28;96607;-65
2020/12/12 10:48:36;;;;;;;28.63;23.50;;;;;;;8.14;71.17;99071.22;4980566;28;98662;-66
2020/12/12 10:51:03;;;;;;;29.77;23.92;;;;;;;8.15;70.91;99074.69;4978108;28;98615;-66
2020/12/12 10:53:29;;;;;;;25.67;21.13;;;;;;;8.21;70.49;99081.28;4970617;28;97287;-66
2020/12/12 10:55:56;;;;;;;29.98;24.17;;;;;;;8.07;71.16;99074.28;4982368;28;96607;-68
2020/12/12 10:58:22;;;;;;;29.98;23.27;;;;;;;8.12;71.05;99075.69;4962344;28;98682;-66
2020/12/12 11:00:51;;;;;;;31.42;24.05;;;;;;;7.98;71.30;99078.25;4973431;28;98723;-67
2020/12/12 11:03:17;;;;;;;27.90;23.67;;;;;;;8.11;70.95;99079.22;4983214;28;97363;-67
2020/12/12 11:05:44;;;;;;;28.08;21.73;;;;;;;8.13;71.36;99087.72;4981654;28;96712;-68
2020/12/12 11:08:11;;;;;;;28.25;23.13;;;;;;;8.07;71.96;99087.25;4978006;28;98459;-68
2020/12/12 11:10:37;;;;;;;25.85;20.95;;;;;;;8.12;72.85;99080.03;4969689;28;98506;-68
2020/12/12 11:13:04;;;;;;;26.25;21.35;;;;;;;8.18;71.84;99084.03;4981529;28;96845;-67
2020/12/12 11:15:35;;;;;;;28.45;24.45;;;;;;;8.24;72.08;99083.69;4982069;28;96694;-67
2020/12/12 11:18:01;;;;;;;30.65;22.73;;;;;;;8.23;71.53;99088.03;4976719;28;98462;-67
2020/12/12 11:20:28;;;;;;;23.98;21.25;;;;;;;8.21;71.89;99089.91;4976254;28;97415;-67
2020/12/12 11:22:55;;;;;;;28.77;23.08;;;;;;;8.32;71.12;99086.66;4974476;28;97113;-67
2020/12/12 11:25:22;;;;;;;27.92;21.95;;;;;;;8.28;71.58;99086.00;4983867;28;97315;-67
2020/12/12 11:27:48;;;;;;;28.25;23.13;;;;;;;8.19;72.08;99086.53;4982638;28;98612;-67